sensor_id;sensor_type;location;lat;lon;timestamp;P1;durP1;ratioP1;P2;durP2;ratioP2
51616;SDS011;37697;52.588;13.394;2024-03-23T00:52:29;10.10;;;2.40;;
51616;SDS011;37697;52.588;13.394;2024-03-23T00:57:54;12.10;;;2.70;;
51616;SDS011;37697;52.588;13.394;2024-03-23T01:03:19;12.30;;;2.80;;
51616;SDS011;37697;52.588;13.394;2024-03-23T01:08:44;10.10;;;2.20;;
51616;SDS011;37697;52.588;13.394;2024-03-23T01:14:10;10.50;;;2.30;;
51616;SDS011;37697;52.588;13.394;2024-03-23T01:19:35;10.90;;;2.30;;
51616;SDS011;37697;52.588;13.394;2024-03-23T01:25:00;13.80;;;3.40;;
51616;SDS011;37697;52.588;13.394;2024-03-23T01:30:18;10.30;;;2.30;;
51616;SDS011;37697;52.588;13.394;2024-03-23T01:35:44;12.20;;;3.70;;
51616;SDS011;37697;52.588;13.394;2024-03-23T01:41:09;11.50;;;2.30;;
51616;SDS011;37697;52.588;13.394;2024-03-23T01:46:34;9.30;;;2.30;;
51616;SDS011;37697;52.588;13.394;2024-03-23T01:52:00;7.50;;;2.10;;
51616;SDS011;37697;52.588;13.394;2024-03-23T01:57:26;9.20;;;2.30;;
51616;SDS011;37697;52.588;13.394;2024-03-23T02:02:51;9.20;;;2.20;;
51616;SDS011;37697;52.588;13.394;2024-03-23T02:08:17;10.40;;;2.30;;
51616;SDS011;37697;52.588;13.394;2024-03-23T02:13:43;14.60;;;3.10;;
51616;SDS011;37697;52.588;13.394;2024-03-23T02:19:09;13.10;;;2.50;;
51616;SDS011;37697;52.588;13.394;2024-03-23T02:24:34;13.10;;;2.90;;
51616;SDS011;37697;52.588;13.394;2024-03-23T02:29:59;11.60;;;2.60;;
51616;SDS011;37697;52.588;13.394;2024-03-23T02:35:25;10.40;;;2.30;;
51616;SDS011;37697;52.588;13.394;2024-03-23T02:40:50;13.90;;;2.70;;
51616;SDS011;37697;52.588;13.394;2024-03-23T02:46:15;13.90;;;3.10;;
51616;SDS011;37697;52.588;13.394;2024-03-23T02:51:41;12.80;;;2.80;;
51616;SDS011;37697;52.588;13.394;2024-03-23T02:57:06;17.10;;;3.20;;
51616;SDS011;37697;52.588;13.394;2024-03-23T03:02:31;13.80;;;3.20;;
51616;SDS011;37697;52.588;13.394;2024-03-23T03:07:57;13.60;;;3.30;;
51616;SDS011;37697;52.588;13.394;2024-03-23T03:13:22;17.00;;;3.10;;
51616;SDS011;37697;52.588;13.394;2024-03-23T03:18:47;12.60;;;2.80;;
51616;SDS011;37697;52.588;13.394;2024-03-23T03:24:12;12.30;;;3.40;;
51616;SDS011;37697;52.588;13.394;2024-03-23T03:29:38;8.60;;;2.90;;
51616;SDS011;37697;52.588;13.394;2024-03-23T03:35:03;13.90;;;4.10;;
51616;SDS011;37697;52.588;13.394;2024-03-23T03:40:29;14.70;;;3.60;;
51616;SDS011;37697;52.588;13.394;2024-03-23T03:45:53;10.20;;;2.70;;
51616;SDS011;37697;52.588;13.394;2024-03-23T03:51:20;11.30;;;2.70;;
51616;SDS011;37697;52.588;13.394;2024-03-23T03:56:45;9.80;;;2.60;;
51616;SDS011;37697;52.588;13.394;2024-03-23T04:02:11;6.40;;;2.20;;
51616;SDS011;37697;52.588;13.394;2024-03-23T04:07:36;9.30;;;2.10;;
51616;SDS011;37697;52.588;13.394;2024-03-23T04:13:01;10.50;;;2.00;;
51616;SDS011;37697;52.588;13.394;2024-03-23T04:18:27;7.60;;;1.90;;
51616;SDS011;37697;52.588;13.394;2024-03-23T04:23:52;9.10;;;1.80;;
51616;SDS011;37697;52.588;13.394;2024-03-23T04:29:17;7.10;;;1.70;;
51616;SDS011;37697;52.588;13.394;2024-03-23T04:34:43;6.80;;;1.50;;
51616;SDS011;37697;52.588;13.394;2024-03-23T04:40:08;5.10;;;1.50;;
51616;SDS011;37697;52.588;13.394;2024-03-23T04:45:34;7.20;;;1.80;;
51616;SDS011;37697;52.588;13.394;2024-03-23T04:51:00;7.20;;;1.90;;
51616;SDS011;37697;52.588;13.394;2024-03-23T04:56:18;6.40;;;1.80;;
51616;SDS011;37697;52.588;13.394;2024-03-23T05:01:44;5.90;;;1.60;;
51616;SDS011;37697;52.588;13.394;2024-03-23T05:07:02;6.50;;;1.70;;
51616;SDS011;37697;52.588;13.394;2024-03-23T05:12:27;7.00;;;1.60;;
51616;SDS011;37697;52.588;13.394;2024-03-23T05:17:52;6.30;;;1.90;;
51616;SDS011;37697;52.588;13.394;2024-03-23T05:23:18;8.00;;;2.30;;
51616;SDS011;37697;52.588;13.394;2024-03-23T05:28:35;7.80;;;1.70;;
51616;SDS011;37697;52.588;13.394;2024-03-23T05:34:01;6.50;;;1.90;;
51616;SDS011;37697;52.588;13.394;2024-03-23T05:39:26;7.00;;;1.70;;
51616;SDS011;37697;52.588;13.394;2024-03-23T05:44:50;5.00;;;1.70;;
51616;SDS011;37697;52.588;13.394;2024-03-23T05:49:58;6.40;;;1.80;;
51616;SDS011;37697;52.588;13.394;2024-03-23T05:55:23;8.10;;;2.10;;
51616;SDS011;37697;52.588;13.394;2024-03-23T06:00:48;7.30;;;1.50;;
51616;SDS011;37697;52.588;13.394;2024-03-23T06:06:13;6.80;;;1.70;;
51616;SDS011;37697;52.588;13.394;2024-03-23T06:11:38;6.10;;;1.70;;
51616;SDS011;37697;52.588;13.394;2024-03-23T06:17:03;6.20;;;2.00;;
51616;SDS011;37697;52.588;13.394;2024-03-23T06:22:20;11.90;;;2.60;;
51616;SDS011;37697;52.588;13.394;2024-03-23T06:27:38;6.30;;;1.90;;
51616;SDS011;37697;52.588;13.394;2024-03-23T06:33:04;7.80;;;2.20;;
51616;SDS011;37697;52.588;13.394;2024-03-23T06:38:29;4.90;;;1.90;;
51616;SDS011;37697;52.588;13.394;2024-03-23T06:43:55;9.30;;;2.30;;
51616;SDS011;37697;52.588;13.394;2024-03-23T06:49:20;7.00;;;1.90;;
51616;SDS011;37697;52.588;13.394;2024-03-23T06:54:25;7.40;;;1.70;;
51616;SDS011;37697;52.588;13.394;2024-03-23T06:59:51;8.00;;;1.70;;
51616;SDS011;37697;52.588;13.394;2024-03-23T07:05:16;7.50;;;1.70;;
51616;SDS011;37697;52.588;13.394;2024-03-23T07:10:41;8.40;;;1.80;;
51616;SDS011;37697;52.588;13.394;2024-03-23T07:16:07;6.60;;;2.10;;
51616;SDS011;37697;52.588;13.394;2024-03-23T07:21:32;8.00;;;2.10;;
51616;SDS011;37697;52.588;13.394;2024-03-23T07:26:57;4.00;;;1.80;;
51616;SDS011;37697;52.588;13.394;2024-03-23T07:32:13;6.90;;;2.00;;
51616;SDS011;37697;52.588;13.394;2024-03-23T07:37:38;9.30;;;2.30;;
51616;SDS011;37697;52.588;13.394;2024-03-23T07:43:11;5.50;;;1.70;;
51616;SDS011;37697;52.588;13.394;2024-03-23T07:48:37;6.50;;;1.90;;
51616;SDS011;37697;52.588;13.394;2024-03-23T07:54:03;8.90;;;1.80;;
51616;SDS011;37697;52.588;13.394;2024-03-23T07:59:28;6.20;;;2.20;;
51616;SDS011;37697;52.588;13.394;2024-03-23T08:04:54;4.40;;;1.60;;
51616;SDS011;37697;52.588;13.394;2024-03-23T08:10:19;7.60;;;1.80;;
51616;SDS011;37697;52.588;13.394;2024-03-23T08:15:45;5.00;;;1.60;;
51616;SDS011;37697;52.588;13.394;2024-03-23T08:21:11;4.80;;;1.20;;
51616;SDS011;37697;52.588;13.394;2024-03-23T08:26:36;6.10;;;2.30;;
51616;SDS011;37697;52.588;13.394;2024-03-23T08:32:01;5.20;;;1.50;;
51616;SDS011;37697;52.588;13.394;2024-03-23T08:37:27;6.80;;;1.70;;
51616;SDS011;37697;52.588;13.394;2024-03-23T08:42:52;8.70;;;2.30;;
51616;SDS011;37697;52.588;13.394;2024-03-23T08:48:17;9.60;;;2.40;;
51616;SDS011;37697;52.588;13.394;2024-03-23T08:53:43;7.30;;;2.20;;
51616;SDS011;37697;52.588;13.394;2024-03-23T08:59:09;5.80;;;1.80;;
51616;SDS011;37697;52.588;13.394;2024-03-23T09:04:27;8.00;;;2.00;;
51616;SDS011;37697;52.588;13.394;2024-03-23T09:09:52;6.40;;;1.60;;
51616;SDS011;37697;52.588;13.394;2024-03-23T09:15:18;7.30;;;1.60;;
51616;SDS011;37697;52.588;13.394;2024-03-23T09:20:34;4.80;;;1.50;;
51616;SDS011;37697;52.588;13.394;2024-03-23T09:26:03;3.50;;;1.30;;
51616;SDS011;37697;52.588;13.394;2024-03-23T09:31:29;5.20;;;1.50;;
51616;SDS011;37697;52.588;13.394;2024-03-23T09:36:37;4.70;;;1.70;;
51616;SDS011;37697;52.588;13.394;2024-03-23T09:41:57;5.60;;;1.50;;
51616;SDS011;37697;52.588;13.394;2024-03-23T09:47:13;8.10;;;1.90;;
51616;SDS011;37697;52.588;13.394;2024-03-23T09:52:39;3.60;;;1.10;;
51616;SDS011;37697;52.588;13.394;2024-03-23T09:57:47;7.60;;;1.90;;
51616;SDS011;37697;52.588;13.394;2024-03-23T10:03:12;7.10;;;1.60;;
51616;SDS011;37697;52.588;13.394;2024-03-23T10:08:37;7.90;;;1.50;;
51616;SDS011;37697;52.588;13.394;2024-03-23T10:14:04;5.10;;;1.20;;
51616;SDS011;37697;52.588;13.394;2024-03-23T10:19:31;5.20;;;1.50;;
51616;SDS011;37697;52.588;13.394;2024-03-23T10:24:49;4.80;;;1.60;;
51616;SDS011;37697;52.588;13.394;2024-03-23T10:30:15;10.30;;;2.30;;
51616;SDS011;37697;52.588;13.394;2024-03-23T10:35:24;4.00;;;1.70;;
51616;SDS011;37697;52.588;13.394;2024-03-23T10:40:29;7.30;;;1.40;;
51616;SDS011;37697;52.588;13.394;2024-03-23T10:45:54;4.20;;;1.40;;
51616;SDS011;37697;52.588;13.394;2024-03-23T10:51:09;6.40;;;1.70;;
51616;SDS011;37697;52.588;13.394;2024-03-23T10:56:26;8.00;;;2.50;;
51616;SDS011;37697;52.588;13.394;2024-03-23T11:01:54;5.90;;;1.90;;
51616;SDS011;37697;52.588;13.394;2024-03-23T11:07:29;9.70;;;2.20;;
51616;SDS011;37697;52.588;13.394;2024-03-23T11:12:56;6.50;;;1.70;;
51616;SDS011;37697;52.588;13.394;2024-03-23T11:18:21;7.80;;;2.20;;
51616;SDS011;37697;52.588;13.394;2024-03-23T11:23:46;7.70;;;3.50;;
51616;SDS011;37697;52.588;13.394;2024-03-23T11:29:13;7.10;;;2.10;;
51616;SDS011;37697;52.588;13.394;2024-03-23T11:34:39;6.50;;;1.80;;
51616;SDS011;37697;52.588;13.394;2024-03-23T11:39:57;6.00;;;1.60;;
51616;SDS011;37697;52.588;13.394;2024-03-23T11:45:23;9.90;;;2.40;;
51616;SDS011;37697;52.588;13.394;2024-03-23T11:50:48;9.40;;;2.70;;
51616;SDS011;37697;52.588;13.394;2024-03-23T11:56:17;7.30;;;2.50;;
51616;SDS011;37697;52.588;13.394;2024-03-23T12:01:42;7.40;;;2.20;;
51616;SDS011;37697;52.588;13.394;2024-03-23T12:07:11;8.70;;;2.20;;
51616;SDS011;37697;52.588;13.394;2024-03-23T12:12:37;10.30;;;2.70;;
51616;SDS011;37697;52.588;13.394;2024-03-23T12:18:09;8.00;;;2.60;;
51616;SDS011;37697;52.588;13.394;2024-03-23T12:23:35;7.40;;;2.40;;
51616;SDS011;37697;52.588;13.394;2024-03-23T12:29:02;8.90;;;2.20;;
51616;SDS011;37697;52.588;13.394;2024-03-23T12:34:28;7.30;;;2.20;;
51616;SDS011;37697;52.588;13.394;2024-03-23T12:39:54;9.10;;;2.20;;
51616;SDS011;37697;52.588;13.394;2024-03-23T12:45:19;9.20;;;2.20;;
51616;SDS011;37697;52.588;13.394;2024-03-23T12:50:44;8.00;;;2.30;;
51616;SDS011;37697;52.588;13.394;2024-03-23T12:56:12;6.40;;;1.80;;
51616;SDS011;37697;52.588;13.394;2024-03-23T13:01:37;8.50;;;2.10;;
51616;SDS011;37697;52.588;13.394;2024-03-23T13:07:03;9.10;;;2.10;;
51616;SDS011;37697;52.588;13.394;2024-03-23T13:12:28;9.40;;;2.20;;
51616;SDS011;37697;52.588;13.394;2024-03-23T13:17:53;7.90;;;3.60;;
51616;SDS011;37697;52.588;13.394;2024-03-23T13:23:02;7.40;;;1.90;;
51616;SDS011;37697;52.588;13.394;2024-03-23T13:28:28;9.90;;;2.10;;
51616;SDS011;37697;52.588;13.394;2024-03-23T13:33:54;6.90;;;2.00;;
51616;SDS011;37697;52.588;13.394;2024-03-23T13:39:19;8.10;;;2.50;;
51616;SDS011;37697;52.588;13.394;2024-03-23T13:44:44;5.80;;;1.90;;
51616;SDS011;37697;52.588;13.394;2024-03-23T13:50:14;7.70;;;2.50;;
51616;SDS011;37697;52.588;13.394;2024-03-23T13:55:43;11.50;;;3.40;;
51616;SDS011;37697;52.588;13.394;2024-03-23T14:01:14;11.00;;;2.70;;
51616;SDS011;37697;52.588;13.394;2024-03-23T14:06:30;7.60;;;2.00;;
51616;SDS011;37697;52.588;13.394;2024-03-23T14:11:55;9.50;;;2.80;;
51616;SDS011;37697;52.588;13.394;2024-03-23T14:17:12;8.40;;;2.80;;
51616;SDS011;37697;52.588;13.394;2024-03-23T14:22:38;8.40;;;2.10;;
51616;SDS011;37697;52.588;13.394;2024-03-23T14:28:03;7.50;;;2.30;;
51616;SDS011;37697;52.588;13.394;2024-03-23T14:33:29;8.70;;;2.90;;
51616;SDS011;37697;52.588;13.394;2024-03-23T14:38:54;4.30;;;1.30;;
51616;SDS011;37697;52.588;13.394;2024-03-23T14:44:20;4.30;;;1.10;;
51616;SDS011;37697;52.588;13.394;2024-03-23T14:49:45;5.30;;;1.20;;
51616;SDS011;37697;52.588;13.394;2024-03-23T14:55:10;2.70;;;1.10;;
51616;SDS011;37697;52.588;13.394;2024-03-23T15:00:36;5.00;;;1.50;;
51616;SDS011;37697;52.588;13.394;2024-03-23T15:06:01;2.80;;;1.10;;
51616;SDS011;37697;52.588;13.394;2024-03-23T15:11:27;5.50;;;1.60;;
51616;SDS011;37697;52.588;13.394;2024-03-23T15:16:45;7.20;;;1.90;;
51616;SDS011;37697;52.588;13.394;2024-03-23T15:22:10;4.10;;;1.70;;
51616;SDS011;37697;52.588;13.394;2024-03-23T15:27:36;5.60;;;2.50;;
51616;SDS011;37697;52.588;13.394;2024-03-23T15:33:14;6.90;;;2.50;;
51616;SDS011;37697;52.588;13.394;2024-03-23T15:39:01;5.40;;;2.10;;
51616;SDS011;37697;52.588;13.394;2024-03-23T15:44:27;6.10;;;2.20;;
51616;SDS011;37697;52.588;13.394;2024-03-23T15:49:52;7.30;;;2.10;;
51616;SDS011;37697;52.588;13.394;2024-03-23T15:55:11;7.70;;;2.50;;
51616;SDS011;37697;52.588;13.394;2024-03-23T16:00:37;6.80;;;2.10;;
51616;SDS011;37697;52.588;13.394;2024-03-23T16:06:02;5.40;;;2.00;;
51616;SDS011;37697;52.588;13.394;2024-03-23T16:11:29;6.80;;;1.70;;
51616;SDS011;37697;52.588;13.394;2024-03-23T16:16:55;7.30;;;1.80;;
51616;SDS011;37697;52.588;13.394;2024-03-23T16:22:20;6.60;;;2.00;;
51616;SDS011;37697;52.588;13.394;2024-03-23T16:27:46;6.90;;;1.80;;
51616;SDS011;37697;52.588;13.394;2024-03-23T16:33:11;7.10;;;1.60;;
51616;SDS011;37697;52.588;13.394;2024-03-23T16:38:37;4.60;;;1.90;;
51616;SDS011;37697;52.588;13.394;2024-03-23T16:44:03;6.70;;;2.00;;
51616;SDS011;37697;52.588;13.394;2024-03-23T16:49:21;5.50;;;1.80;;
51616;SDS011;37697;52.588;13.394;2024-03-23T16:54:39;4.90;;;1.60;;
51616;SDS011;37697;52.588;13.394;2024-03-23T17:00:06;7.70;;;1.90;;
51616;SDS011;37697;52.588;13.394;2024-03-23T17:05:38;5.90;;;2.00;;
51616;SDS011;37697;52.588;13.394;2024-03-23T17:10:58;4.80;;;1.90;;
51616;SDS011;37697;52.588;13.394;2024-03-23T17:16:23;6.50;;;2.30;;
51616;SDS011;37697;52.588;13.394;2024-03-23T17:21:48;5.50;;;2.20;;
51616;SDS011;37697;52.588;13.394;2024-03-23T17:27:14;6.10;;;2.00;;
51616;SDS011;37697;52.588;13.394;2024-03-23T17:32:39;3.90;;;2.30;;
51616;SDS011;37697;52.588;13.394;2024-03-23T17:38:03;6.40;;;2.50;;
51616;SDS011;37697;52.588;13.394;2024-03-23T17:43:29;6.60;;;3.00;;
51616;SDS011;37697;52.588;13.394;2024-03-23T17:48:54;6.50;;;2.70;;
51616;SDS011;37697;52.588;13.394;2024-03-23T17:54:20;6.70;;;2.50;;
51616;SDS011;37697;52.588;13.394;2024-03-23T17:59:37;6.70;;;2.50;;
51616;SDS011;37697;52.588;13.394;2024-03-23T18:05:03;6.00;;;2.70;;
51616;SDS011;37697;52.588;13.394;2024-03-23T18:10:29;5.70;;;2.10;;
51616;SDS011;37697;52.588;13.394;2024-03-23T18:15:57;9.10;;;3.40;;
51616;SDS011;37697;52.588;13.394;2024-03-23T18:21:23;4.10;;;2.00;;
51616;SDS011;37697;52.588;13.394;2024-03-23T18:26:49;4.20;;;1.80;;
51616;SDS011;37697;52.588;13.394;2024-03-23T18:32:14;5.20;;;1.70;;
51616;SDS011;37697;52.588;13.394;2024-03-23T18:37:40;4.90;;;1.50;;
51616;SDS011;37697;52.588;13.394;2024-03-23T18:42:58;4.70;;;1.10;;
51616;SDS011;37697;52.588;13.394;2024-03-23T18:48:23;3.80;;;1.90;;
51616;SDS011;37697;52.588;13.394;2024-03-23T18:53:47;6.50;;;1.50;;
51616;SDS011;37697;52.588;13.394;2024-03-23T18:59:05;3.20;;;1.30;;
51616;SDS011;37697;52.588;13.394;2024-03-23T19:04:30;1.80;;;0.90;;
51616;SDS011;37697;52.588;13.394;2024-03-23T19:09:46;7.00;;;1.10;;
51616;SDS011;37697;52.588;13.394;2024-03-23T19:15:14;3.80;;;1.30;;
51616;SDS011;37697;52.588;13.394;2024-03-23T19:20:32;3.30;;;1.20;;
51616;SDS011;37697;52.588;13.394;2024-03-23T19:25:58;2.40;;;1.00;;
51616;SDS011;37697;52.588;13.394;2024-03-23T19:31:24;4.10;;;1.20;;
51616;SDS011;37697;52.588;13.394;2024-03-23T19:36:49;3.90;;;1.20;;
51616;SDS011;37697;52.588;13.394;2024-03-23T19:42:15;5.10;;;1.60;;
51616;SDS011;37697;52.588;13.394;2024-03-23T19:47:40;4.10;;;1.50;;
51616;SDS011;37697;52.588;13.394;2024-03-23T19:58:38;3.80;;;1.40;;
51616;SDS011;37697;52.588;13.394;2024-03-23T20:03:56;4.90;;;2.00;;
51616;SDS011;37697;52.588;13.394;2024-03-23T20:09:21;4.40;;;1.90;;
51616;SDS011;37697;52.588;13.394;2024-03-23T20:14:46;3.90;;;1.80;;
51616;SDS011;37697;52.588;13.394;2024-03-23T20:20:11;4.90;;;1.40;;
51616;SDS011;37697;52.588;13.394;2024-03-23T20:25:37;5.50;;;2.20;;
51616;SDS011;37697;52.588;13.394;2024-03-23T20:31:02;3.90;;;1.80;;
51616;SDS011;37697;52.588;13.394;2024-03-23T20:36:28;2.90;;;1.20;;
51616;SDS011;37697;52.588;13.394;2024-03-23T20:41:53;3.70;;;1.60;;
51616;SDS011;37697;52.588;13.394;2024-03-23T20:47:19;4.50;;;2.10;;
51616;SDS011;37697;52.588;13.394;2024-03-23T20:52:44;3.00;;;1.60;;
51616;SDS011;37697;52.588;13.394;2024-03-23T20:58:09;6.50;;;1.90;;
51616;SDS011;37697;52.588;13.394;2024-03-23T21:03:33;5.20;;;2.10;;
51616;SDS011;37697;52.588;13.394;2024-03-23T21:08:59;4.90;;;2.00;;
51616;SDS011;37697;52.588;13.394;2024-03-23T21:14:24;6.40;;;2.10;;
51616;SDS011;37697;52.588;13.394;2024-03-23T21:19:49;4.00;;;2.10;;
51616;SDS011;37697;52.588;13.394;2024-03-23T21:25:15;4.90;;;2.30;;
51616;SDS011;37697;52.588;13.394;2024-03-23T21:30:40;5.40;;;2.60;;
51616;SDS011;37697;52.588;13.394;2024-03-23T21:36:06;5.50;;;2.70;;
51616;SDS011;37697;52.588;13.394;2024-03-23T21:41:31;5.60;;;2.80;;
51616;SDS011;37697;52.588;13.394;2024-03-23T21:46:57;6.00;;;2.70;;
51616;SDS011;37697;52.588;13.394;2024-03-23T21:52:22;6.50;;;3.10;;
51616;SDS011;37697;52.588;13.394;2024-03-23T21:57:48;7.20;;;3.00;;
51616;SDS011;37697;52.588;13.394;2024-03-23T22:03:13;5.20;;;2.60;;
51616;SDS011;37697;52.588;13.394;2024-03-23T22:08:39;6.20;;;3.00;;
51616;SDS011;37697;52.588;13.394;2024-03-23T22:14:04;6.60;;;2.60;;
51616;SDS011;37697;52.588;13.394;2024-03-23T22:19:29;5.60;;;3.00;;
51616;SDS011;37697;52.588;13.394;2024-03-23T22:24:55;4.70;;;2.90;;
51616;SDS011;37697;52.588;13.394;2024-03-23T22:30:12;5.20;;;2.90;;
51616;SDS011;37697;52.588;13.394;2024-03-23T22:35:40;5.80;;;2.50;;
51616;SDS011;37697;52.588;13.394;2024-03-23T22:41:09;7.20;;;2.90;;
51616;SDS011;37697;52.588;13.394;2024-03-23T22:46:28;7.70;;;2.80;;
51616;SDS011;37697;52.588;13.394;2024-03-23T22:51:53;4.40;;;2.50;;
51616;SDS011;37697;52.588;13.394;2024-03-23T22:57:01;5.10;;;2.90;;
51616;SDS011;37697;52.588;13.394;2024-03-23T23:02:07;6.00;;;2.90;;
51616;SDS011;37697;52.588;13.394;2024-03-23T23:07:32;5.70;;;3.40;;
51616;SDS011;37697;52.588;13.394;2024-03-23T23:12:57;6.60;;;3.50;;
51616;SDS011;37697;52.588;13.394;2024-03-23T23:18:22;6.80;;;3.80;;
51616;SDS011;37697;52.588;13.394;2024-03-23T23:23:48;6.50;;;2.70;;
51616;SDS011;37697;52.588;13.394;2024-03-23T23:29:14;4.90;;;3.40;;
51616;SDS011;37697;52.588;13.394;2024-03-23T23:34:39;7.10;;;3.70;;
51616;SDS011;37697;52.588;13.394;2024-03-23T23:40:05;4.80;;;3.30;;
51616;SDS011;37697;52.588;13.394;2024-03-23T23:45:32;5.80;;;3.60;;
51616;SDS011;37697;52.588;13.394;2024-03-23T23:50:57;5.50;;;3.60;;
51616;SDS011;37697;52.588;13.394;2024-03-23T23:56:22;7.80;;;4.10;;
